Time;durP1;ratioP1;P1;durP2;ratioP2;P2;SDS_P1;SDS_P2;PMS_P1;PMS_P2;Temp;Humidity;BMP_temperature;BMP_pressure;BME280_temperature;BME280_humidity;BME280_pressure;Samples;Min_cycle;Max_cycle;Signal;HPM_P1;HPM_P2
2022/03/17 00:02:16;;;;;;;19.42;17.13;;;;;;;5.68;100.00;96334.41;5073421;28;24430;-76
2022/03/17 00:04:43;;;;;;;19.63;17.55;;;;;;;5.71;100.00;96346.31;5073182;28;24415;-76
2022/03/17 00:07:09;;;;;;;18.80;16.80;;;;;;;5.66;100.00;96346.47;5073130;28;24433;-76
2022/03/17 00:09:35;;;;;;;19.73;16.30;;;;;;;5.66;100.00;96343.06;5073119;28;24430;-76
2022/03/17 00:12:03;;;;;;;17.37;15.67;;;;;;;5.65;100.00;96333.69;5072979;28;24427;-76
2022/03/17 00:14:30;;;;;;;18.58;16.67;;;;;;;5.56;100.00;96335.69;5073259;28;24526;-76
2022/03/17 00:16:57;;;;;;;18.47;16.67;;;;;;;5.48;100.00;96335.06;5073044;28;24497;-76
2022/03/17 00:19:23;;;;;;;18.80;16.90;;;;;;;5.51;100.00;96331.56;5072354;28;24454;-76
2022/03/17 00:21:50;;;;;;;21.55;16.30;;;;;;;5.53;100.00;96335.78;5072751;28;24966;-76
2022/03/17 00:24:17;;;;;;;18.90;17.00;;;;;;;5.41;100.00;96333.59;5072958;28;24426;-76
2022/03/17 00:26:43;;;;;;;23.10;17.10;;;;;;;5.42;100.00;96319.88;5072398;28;24430;-76
2022/03/17 00:29:11;;;;;;;19.38;16.70;;;;;;;5.40;100.00;96320.81;5072664;28;24433;-76
2022/03/17 00:31:39;;;;;;;21.53;18.00;;;;;;;5.20;100.00;96329.19;5072545;28;24492;-76
2022/03/17 00:34:06;;;;;;;21.98;18.95;;;;;;;5.12;100.00;96328.56;5072435;28;24419;-76
2022/03/17 00:36:34;;;;;;;23.98;20.42;;;;;;;5.02;100.00;96320.34;5072745;28;24447;-76
2022/03/17 00:39:00;;;;;;;23.27;20.77;;;;;;;4.92;100.00;96330.06;5072532;28;24419;-76
2022/03/17 00:41:27;;;;;;;26.60;20.87;;;;;;;4.90;100.00;96326.72;5072567;28;24461;-76
2022/03/17 00:43:53;;;;;;;24.65;21.15;;;;;;;4.77;100.00;96328.81;5072646;28;24445;-76
2022/03/17 00:46:21;;;;;;;27.17;20.40;;;;;;;4.79;100.00;96331.34;5072365;28;24419;-76
2022/03/17 00:48:49;;;;;;;24.45;20.58;;;;;;;4.72;100.00;96328.13;5072026;28;24515;-76
2022/03/17 00:51:16;;;;;;;25.73;20.63;;;;;;;4.68;100.00;96338.53;5072280;28;24423;-76
2022/03/17 00:53:42;;;;;;;21.27;19.08;;;;;;;4.80;100.00;96328.72;5072362;28;24505;-76
2022/03/17 00:56:09;;;;;;;20.95;17.08;;;;;;;4.85;100.00;96321.72;5071705;28;24435;-76
2022/03/17 00:58:36;;;;;;;23.15;16.90;;;;;;;4.99;100.00;96323.84;5071596;28;25036;-76
2022/03/17 01:01:02;;;;;;;20.45;18.27;;;;;;;4.93;100.00;96320.63;5072352;28;24430;-76
2022/03/17 01:03:28;;;;;;;20.77;18.52;;;;;;;4.92;100.00;96322.38;5072062;28;24415;-76
2022/03/17 01:05:56;;;;;;;18.67;16.77;;;;;;;4.93;100.00;96316.38;5071897;28;24431;-76
2022/03/17 01:08:23;;;;;;;19.40;17.48;;;;;;;5.01;100.00;96319.53;5071841;28;24426;-76
2022/03/17 01:10:49;;;;;;;20.67;17.92;;;;;;;5.04;100.00;96321.13;5071012;28;24944;-76
2022/03/17 01:13:16;;;;;;;18.97;17.10;;;;;;;5.07;100.00;96323.59;5071572;28;24549;-76
2022/03/17 01:15:42;;;;;;;20.83;18.58;;;;;;;5.12;100.00;96323.44;5071395;28;25121;-76
2022/03/17 01:18:09;;;;;;;18.40;16.53;;;;;;;5.08;100.00;96323.56;5071410;28;25010;-75
2022/03/17 01:20:35;;;;;;;19.45;17.17;;;;;;;5.15;100.00;96319.06;5071233;28;24505;-76
2022/03/17 01:23:04;;;;;;;22.27;17.20;;;;;;;5.14;100.00;96312.25;5071714;28;24435;-76
2022/03/17 01:25:31;;;;;;;18.73;16.83;;;;;;;5.17;100.00;96314.72;5071576;28;24427;-76
2022/03/17 01:27:58;;;;;;;19.05;16.92;;;;;;;5.16;100.00;96307.06;5071476;28;24426;-76
2022/03/17 01:30:24;;;;;;;17.17;15.48;;;;;;;5.17;100.00;96312.16;5062838;28;25063;-76
2022/03/17 01:32:51;;;;;;;17.25;15.60;;;;;;;5.18;100.00;96310.41;5071233;28;24415;-76
2022/03/17 01:35:17;;;;;;;22.33;16.75;;;;;;;5.00;100.00;96310.13;5071032;28;24446;-76
2022/03/17 01:37:44;;;;;;;23.02;17.67;;;;;;;4.90;100.00;96308.75;5071076;28;24441;-76
2022/03/17 01:40:12;;;;;;;18.83;16.40;;;;;;;4.94;100.00;96306.94;5071209;28;24423;-76
2022/03/17 01:42:39;;;;;;;20.25;17.50;;;;;;;4.99;100.00;96302.47;5071075;28;24434;-76
2022/03/17 01:45:07;;;;;;;18.05;16.38;;;;;;;4.93;100.00;96308.66;5070645;28;24480;-76
2022/03/17 01:47:34;;;;;;;17.48;15.77;;;;;;;4.90;100.00;96306.19;5070987;28;24464;-76
2022/03/17 01:50:02;;;;;;;19.42;16.10;;;;;;;4.89;100.00;96306.22;5070731;28;24431;-76
2022/03/17 01:52:29;;;;;;;17.85;15.90;;;;;;;4.83;100.00;96302.97;5071129;28;24826;-76
2022/03/17 01:54:56;;;;;;;22.75;18.25;;;;;;;4.75;100.00;96309.25;5071027;28;24480;-76
2022/03/17 01:57:24;;;;;;;19.80;16.33;;;;;;;4.74;100.00;96310.94;5070801;28;24435;-75
2022/03/17 01:59:52;;;;;;;19.30;16.40;;;;;;;4.77;100.00;96310.00;5070955;28;24418;-76
2022/03/17 02:02:19;;;;;;;22.35;18.95;;;;;;;4.49;100.00;96312.59;5070825;28;24898;-76
2022/03/17 02:04:47;;;;;;;25.10;22.50;;;;;;;4.47;100.00;96315.19;5071036;28;24851;-76
2022/03/17 02:07:15;;;;;;;25.17;20.40;;;;;;;4.60;100.00;96305.44;5070542;28;24429;-76
2022/03/17 02:09:44;;;;;;;23.85;19.67;;;;;;;4.38;100.00;96312.94;5070334;28;24956;-76
2022/03/17 02:14:58;;;;;;;20.77;18.70;;;;;;;4.43;100.00;96308.47;5070740;28;24390;-76
2022/03/17 02:17:27;;;;;;;21.58;18.73;;;;;;;4.52;100.00;96318.44;5070255;28;24458;-76
2022/03/17 02:19:53;;;;;;;20.10;18.17;;;;;;;4.64;100.00;96312.13;5070640;28;24445;-76
2022/03/17 02:22:22;;;;;;;20.60;18.20;;;;;;;4.73;100.00;96313.56;5070667;28;24824;-76
2022/03/17 02:27:41;;;;;;;19.50;17.38;;;;;;;4.87;100.00;96318.28;5070475;28;24441;-76
2022/03/17 02:30:08;;;;;;;19.67;17.58;;;;;;;4.90;100.00;96318.19;5070556;28;24434;-76
2022/03/17 02:32:34;;;;;;;18.55;16.75;;;;;;;4.91;100.00;96318.13;5070605;28;24452;-76
2022/03/17 02:35:05;;;;;;;19.20;17.25;;;;;;;4.91;100.00;96312.16;5070434;28;24415;-76
2022/03/17 02:37:32;;;;;;;19.88;17.92;;;;;;;4.81;100.00;96314.16;5070412;28;24546;-76
2022/03/17 02:40:00;;;;;;;20.75;17.50;;;;;;;4.87;100.00;96318.28;5070070;28;24430;-76
2022/03/17 02:42:30;;;;;;;18.10;16.20;;;;;;;4.94;100.00;96317.19;5070440;28;24502;-75
2022/03/17 02:44:57;;;;;;;19.87;17.40;;;;;;;4.99;100.00;96313.56;5070901;28;24426;-76
2022/03/17 02:47:24;;;;;;;19.80;17.57;;;;;;;4.97;100.00;96322.22;5070382;28;24437;-76
2022/03/17 02:49:52;;;;;;;19.80;17.80;;;;;;;4.99;100.00;96321.28;5070221;28;24422;-76
2022/03/17 02:52:19;;;;;;;19.83;17.30;;;;;;;4.93;100.00;96323.19;5070694;28;24501;-76
2022/03/17 02:54:46;;;;;;;20.95;17.70;;;;;;;5.01;100.00;96316.13;5070612;28;24797;-76
2022/03/17 02:57:13;;;;;;;19.52;17.05;;;;;;;5.01;100.00;96323.81;5074303;28;24508;-76
2022/03/17 02:59:40;;;;;;;20.02;17.98;;;;;;;4.98;100.00;96322.19;5074333;28;24427;-76
2022/03/17 03:02:06;;;;;;;19.73;17.23;;;;;;;4.99;100.00;96317.88;5074614;28;24430;-76
2022/03/17 03:04:33;;;;;;;21.48;18.33;;;;;;;4.77;100.00;96313.41;5074485;28;24434;-76
2022/03/17 03:07:02;;;;;;;21.27;18.95;;;;;;;4.76;100.00;96321.19;5074271;28;24533;-76
2022/03/17 03:09:28;;;;;;;23.40;18.40;;;;;;;4.72;100.00;96325.56;5074147;28;24438;-76
2022/03/17 03:11:55;;;;;;;19.83;17.63;;;;;;;4.76;100.00;96321.19;5074350;28;24422;-76
2022/03/17 03:14:22;;;;;;;19.83;17.80;;;;;;;4.79;100.00;96326.22;5074240;28;24796;-76
2022/03/17 03:16:49;;;;;;;20.27;18.27;;;;;;;4.72;100.00;96332.44;5074134;28;24869;-76
2022/03/17 03:19:15;;;;;;;23.23;19.65;;;;;;;4.64;100.00;96335.22;5081019;22;24485;-76
2022/03/17 03:21:43;;;;;;;26.80;17.70;;;;;;;4.65;100.00;96331.75;5073745;28;24418;-76
2022/03/17 03:24:09;;;;;;;24.27;18.63;;;;;;;4.45;100.00;96334.06;5071767;28;24536;-76
2022/03/17 03:26:36;;;;;;;21.83;19.30;;;;;;;4.33;100.00;96335.28;5073850;28;24426;-77
2022/03/17 03:29:04;;;;;;;20.05;18.05;;;;;;;4.29;100.00;96336.25;5073573;28;24488;-76
2022/03/17 03:31:34;;;;;;;21.83;19.55;;;;;;;4.21;100.00;96343.34;5073584;28;25001;-76
2022/03/17 03:34:01;;;;;;;21.70;18.63;;;;;;;4.12;100.00;96340.16;5073675;28;24431;-75
2022/03/17 03:39:17;;;;;;;18.98;17.08;;;;;;;4.35;100.00;96351.47;5062486;28;24824;-75
2022/03/17 03:41:43;;;;;;;19.60;17.55;;;;;;;4.34;100.00;96349.81;5073315;28;24442;-76
2022/03/17 03:44:14;;;;;;;21.70;19.05;;;;;;;4.27;100.00;96354.25;5073318;28;24429;-76
2022/03/17 03:46:42;;;;;;;22.35;19.08;;;;;;;4.38;100.00;96353.97;5073489;28;24852;-76
2022/03/17 03:49:08;;;;;;;19.48;17.25;;;;;;;4.51;100.00;96354.41;5072960;28;24438;-76
2022/03/17 03:51:35;;;;;;;25.15;17.67;;;;;;;4.58;100.00;96363.63;5073475;28;24534;-76
2022/03/17 03:54:15;;;;;;;20.33;18.23;;;;;;;4.49;100.00;96372.44;5073446;28;24434;-76
2022/03/17 03:56:42;;;;;;;20.67;17.55;;;;;;;4.51;100.00;96372.38;5073071;28;24474;-76
2022/03/17 03:59:09;;;;;;;18.13;16.20;;;;;;;4.58;100.00;96369.59;5072790;28;24407;-76
2022/03/17 04:01:36;;;;;;;20.23;18.38;;;;;;;4.64;100.00;96366.00;5073210;28;24952;-76
2022/03/17 04:04:04;;;;;;;22.13;18.23;;;;;;;4.68;100.00;96362.47;5073226;28;24454;-76
2022/03/17 04:06:30;;;;;;;19.27;17.38;;;;;;;4.62;100.00;96372.91;5072886;28;24411;-76
2022/03/17 04:08:57;;;;;;;19.20;17.20;;;;;;;4.65;100.00;96366.84;5072253;28;24426;-76
2022/03/17 04:11:23;;;;;;;18.88;17.08;;;;;;;4.69;100.00;96376.13;5073031;28;24418;-76
2022/03/17 04:13:50;;;;;;;17.95;16.17;;;;;;;4.75;100.00;96368.25;5072682;28;25029;-76
2022/03/17 04:16:17;;;;;;;21.27;16.73;;;;;;;4.79;100.00;96372.41;5072905;28;24866;-76
2022/03/17 04:18:44;;;;;;;19.08;17.08;;;;;;;4.68;100.00;96371.91;5072412;28;24967;-75
2022/03/17 04:21:11;;;;;;;21.30;17.40;;;;;;;4.74;100.00;96376.81;5072791;28;24415;-75
2022/03/17 04:23:38;;;;;;;17.30;15.55;;;;;;;4.82;100.00;96374.84;5072851;28;24414;-75
2022/03/17 04:26:04;;;;;;;18.90;17.05;;;;;;;4.84;100.00;96373.09;5072596;28;24575;-76
2022/03/17 04:28:31;;;;;;;20.23;16.80;;;;;;;4.85;100.00;96372.19;5072261;28;24951;-76
2022/03/17 04:30:58;;;;;;;22.08;18.33;;;;;;;4.74;100.00;96382.78;5072870;28;24415;-76
2022/03/17 04:33:24;;;;;;;18.00;16.25;;;;;;;4.78;100.00;96383.53;5072562;28;24454;-75
2022/03/17 04:35:51;;;;;;;18.08;16.17;;;;;;;4.89;100.00;96390.91;5072295;28;24468;-76
2022/03/17 04:38:19;;;;;;;17.15;15.35;;;;;;;4.94;100.00;96381.38;5072276;28;24458;-76
2022/03/17 04:40:49;;;;;;;17.85;15.95;;;;;;;4.93;100.00;96388.22;5072124;28;24476;-76
2022/03/17 04:43:17;;;;;;;17.02;15.23;;;;;;;4.95;100.00;96388.16;5072549;28;24438;-76
2022/03/17 04:45:43;;;;;;;17.23;15.43;;;;;;;4.95;100.00;96390.75;5072301;28;24426;-76
2022/03/17 04:48:10;;;;;;;18.07;16.17;;;;;;;4.89;100.00;96402.03;5072305;28;24459;-76
2022/03/17 04:50:37;;;;;;;17.33;15.63;;;;;;;4.87;100.00;96405.53;5072014;28;24417;-76
2022/03/17 04:55:48;;;;;;;17.70;15.80;;;;;;;4.93;100.00;96401.06;5071874;28;24426;-76
2022/03/17 04:58:15;;;;;;;17.52;15.25;;;;;;;5.03;100.00;96404.19;5072148;28;24446;-76
2022/03/17 05:00:42;;;;;;;16.85;15.02;;;;;;;5.07;100.00;96404.03;5071917;28;24458;-76
2022/03/17 05:03:08;;;;;;;18.63;15.70;;;;;;;4.93;100.00;96400.19;5071988;28;24492;-75
2022/03/17 05:05:35;;;;;;;19.83;16.50;;;;;;;4.87;100.00;96416.66;5071854;28;24414;-76
2022/03/17 05:08:01;;;;;;;19.00;17.10;;;;;;;4.60;100.00;96423.44;5071698;28;24823;-74
2022/03/17 05:10:28;;;;;;;17.13;15.38;;;;;;;4.70;100.00;96416.28;5071775;28;24430;-75
2022/03/17 05:12:56;;;;;;;17.80;16.00;;;;;;;4.69;100.00;96424.88;5071875;28;24433;-75
2022/03/17 05:15:24;;;;;;;17.60;15.80;;;;;;;4.72;100.00;96422.22;5071780;28;24472;-76
2022/03/17 05:17:51;;;;;;;18.08;16.13;;;;;;;4.80;100.00;96417.72;5071377;28;24454;-75
2022/03/17 05:20:18;;;;;;;23.88;17.17;;;;;;;4.94;100.00;96428.41;5070393;28;24476;-76
2022/03/17 05:22:44;;;;;;;18.63;16.60;;;;;;;5.14;100.00;96421.81;5071422;28;24415;-75
2022/03/17 05:25:12;;;;;;;21.47;17.47;;;;;;;5.08;100.00;96415.16;5071639;28;24423;-76
2022/03/17 05:27:39;;;;;;;18.45;16.50;;;;;;;4.86;100.00;96417.53;5071389;28;24963;-76
2022/03/17 05:30:13;;;;;;;18.08;16.33;;;;;;;4.83;100.00;96423.59;5071211;28;24959;-76
2022/03/17 05:32:40;;;;;;;18.63;16.63;;;;;;;4.87;100.00;96431.22;5071458;28;24453;-75
2022/03/17 05:35:07;;;;;;;19.17;16.93;;;;;;;4.90;100.00;96424.25;5071244;28;24484;-75
2022/03/17 05:37:34;;;;;;;18.67;16.70;;;;;;;4.90;100.00;96431.97;5071370;28;24510;-76
2022/03/17 05:40:02;;;;;;;16.83;15.17;;;;;;;4.95;100.00;96424.09;5071015;28;25021;-76
2022/03/17 05:42:28;;;;;;;16.52;14.93;;;;;;;4.93;100.00;96431.00;5071271;28;24430;-75
2022/03/17 05:44:55;;;;;;;17.23;15.35;;;;;;;4.94;100.00;96427.56;5071187;28;24433;-76
2022/03/17 05:47:23;;;;;;;16.53;14.93;;;;;;;4.94;100.00;96430.13;5071187;28;24421;-76
2022/03/17 05:49:50;;;;;;;17.02;15.23;;;;;;;4.94;100.00;96437.84;5070630;28;24465;-76
2022/03/17 05:52:16;;;;;;;18.85;16.05;;;;;;;4.90;100.00;96446.53;5071268;28;24792;-76
2022/03/17 05:54:44;;;;;;;18.73;16.70;;;;;;;4.71;100.00;96447.06;5071069;28;24468;-76
2022/03/17 05:57:11;;;;;;;19.23;16.95;;;;;;;4.69;100.00;96448.81;5070956;28;24453;-76
2022/03/17 05:59:39;;;;;;;19.20;17.10;;;;;;;4.65;100.00;96462.63;5071607;28;24433;-76
2022/03/17 06:02:06;;;;;;;18.63;15.50;;;;;;;4.65;100.00;96446.38;5071297;28;24431;-77
2022/03/17 06:04:34;;;;;;;17.13;15.50;;;;;;;4.70;100.00;96457.34;5070792;28;24488;-76
2022/03/17 06:07:00;;;;;;;19.47;17.17;;;;;;;4.75;100.00;96451.22;5070657;28;25005;-76
2022/03/17 06:09:27;;;;;;;18.48;16.00;;;;;;;4.92;100.00;96444.72;5070574;28;24480;-76
2022/03/17 06:11:55;;;;;;;18.55;16.58;;;;;;;5.17;100.00;96455.09;5071016;28;24430;-76
2022/03/17 06:14:21;;;;;;;19.08;16.77;;;;;;;5.17;100.00;96455.09;5070622;28;24434;-76
2022/03/17 06:16:48;;;;;;;20.40;16.25;;;;;;;5.17;100.00;96470.53;5070441;28;24438;-76
2022/03/17 06:19:14;;;;;;;17.65;15.57;;;;;;;5.02;100.00;96484.66;5070268;28;24816;-76
2022/03/17 06:21:42;;;;;;;18.60;16.73;;;;;;;5.00;100.00;96496.69;5070357;28;24780;-76
2022/03/17 06:24:09;;;;;;;18.48;15.50;;;;;;;4.91;100.00;96505.50;5070044;28;24418;-76
2022/03/17 06:26:35;;;;;;;17.85;16.02;;;;;;;4.75;100.00;96514.53;5070103;28;24488;-76
2022/03/17 06:29:02;;;;;;;17.90;15.95;;;;;;;4.75;100.00;96510.22;5069644;28;24426;-75
2022/03/17 06:31:28;;;;;;;17.85;16.02;;;;;;;4.63;100.00;96514.84;5069976;28;24418;-76
2022/03/17 06:33:55;;;;;;;18.20;16.15;;;;;;;4.58;100.00;96515.81;5070627;28;24807;-76
2022/03/17 06:36:22;;;;;;;17.60;15.63;;;;;;;4.65;100.00;96518.22;5070628;28;24426;-76
2022/03/17 06:38:50;;;;;;;15.93;14.30;;;;;;;4.73;100.00;96513.72;5070168;28;24461;-76
2022/03/17 06:41:16;;;;;;;18.60;16.02;;;;;;;4.80;100.00;96507.53;5070492;28;24423;-76
2022/03/17 06:43:43;;;;;;;19.48;16.20;;;;;;;4.90;100.00;96515.81;5070053;28;24410;-76
2022/03/17 06:46:09;;;;;;;19.10;16.52;;;;;;;4.99;100.00;96518.94;5070661;28;24431;-77
2022/03/17 06:48:36;;;;;;;18.65;16.75;;;;;;;5.01;100.00;96526.63;5071207;28;24480;-77
2022/03/17 06:51:02;;;;;;;18.23;16.33;;;;;;;5.03;100.00;96517.13;5071649;28;24434;-77
2022/03/17 06:53:29;;;;;;;19.50;16.35;;;;;;;4.98;100.00;96524.97;5072574;28;24426;-78
2022/03/17 06:55:56;;;;;;;19.30;16.77;;;;;;;5.01;100.00;96522.31;5072296;28;24468;-78
2022/03/17 06:58:23;;;;;;;17.83;15.98;;;;;;;5.21;100.00;96521.72;5070995;28;24512;-77
2022/03/17 07:00:49;;;;;;;18.00;16.23;;;;;;;5.12;100.00;96527.16;5071253;28;24429;-78
2022/03/17 07:03:16;;;;;;;19.88;17.88;;;;;;;5.12;100.00;96526.28;5071933;28;24421;-72
2022/03/17 07:05:42;;;;;;;20.15;17.13;;;;;;;5.10;100.00;96527.19;5070670;28;24422;-76
2022/03/17 07:08:09;;;;;;;18.70;16.35;;;;;;;5.16;100.00;96531.31;5070191;28;24431;-75
2022/03/17 07:10:36;;;;;;;17.17;15.48;;;;;;;5.21;100.00;96529.44;5068130;28;24430;-76
2022/03/17 07:13:04;;;;;;;19.25;17.27;;;;;;;5.42;100.00;96535.66;5050278;28;24788;-77
2022/03/17 07:15:30;;;;;;;23.55;17.52;;;;;;;5.42;100.00;96530.53;5050494;28;24426;-77
2022/03/17 07:17:58;;;;;;;19.35;17.38;;;;;;;5.34;100.00;96535.91;5050306;28;24474;-77
2022/03/17 07:20:24;;;;;;;20.92;18.65;;;;;;;5.24;100.00;96557.59;5050864;28;24427;-77
2022/03/17 07:22:51;;;;;;;20.33;17.92;;;;;;;5.27;100.00;96539.53;5052941;28;24426;-75
2022/03/17 07:25:18;;;;;;;18.17;16.38;;;;;;;5.33;100.00;96541.91;5052090;28;24455;-76
2022/03/17 07:27:46;;;;;;;20.48;17.75;;;;;;;5.39;100.00;96548.59;5052133;28;24426;-77
2022/03/17 07:30:18;;;;;;;19.73;17.58;;;;;;;5.44;100.00;96548.47;5054991;28;24415;-78
2022/03/17 07:32:45;;;;;;;20.40;18.25;;;;;;;5.42;100.00;96563.94;5050562;28;24865;-76
2022/03/17 07:35:12;;;;;;;21.83;17.50;;;;;;;5.41;100.00;96567.38;5050931;28;25002;-76
2022/03/17 07:37:39;;;;;;;19.05;17.23;;;;;;;5.48;100.00;96566.28;5050995;28;24443;-77
2022/03/17 07:40:07;;;;;;;18.38;16.48;;;;;;;5.48;100.00;96570.59;5051279;28;24423;-77
2022/03/17 07:42:33;;;;;;;19.70;16.83;;;;;;;5.49;100.00;96567.16;5051948;28;24940;-77
2022/03/17 07:45:00;;;;;;;18.95;16.95;;;;;;;5.44;100.00;96567.28;5054972;28;24419;-74
2022/03/17 07:47:28;;;;;;;18.23;16.42;;;;;;;5.43;100.00;96580.19;5054545;28;24430;-74
2022/03/17 07:49:54;;;;;;;18.48;16.60;;;;;;;5.42;100.00;96579.34;5053336;28;24415;-76
2022/03/17 07:52:21;;;;;;;18.40;16.10;;;;;;;5.49;100.00;96591.13;5053417;28;24431;-77
2022/03/17 07:54:48;;;;;;;22.37;16.07;;;;;;;5.51;100.00;96578.22;5053382;28;24423;-77
2022/03/17 07:57:15;;;;;;;26.70;16.90;;;;;;;5.54;100.00;96584.09;5053192;28;24407;-76
2022/03/17 07:59:42;;;;;;;18.02;16.40;;;;;;;5.54;100.00;96591.81;5053204;28;24987;-77
2022/03/17 08:02:08;;;;;;;17.92;15.85;;;;;;;5.58;100.00;96584.84;5055142;28;24477;-77
2022/03/17 08:04:37;;;;;;;21.35;15.63;;;;;;;5.65;100.00;96586.34;5054874;28;24426;-77
2022/03/17 08:07:04;;;;;;;21.23;16.73;;;;;;;5.67;100.00;96591.44;5053640;28;25006;-76
2022/03/17 08:09:30;;;;;;;19.13;16.88;;;;;;;5.69;100.00;96587.09;5052958;28;24430;-77
2022/03/17 08:11:57;;;;;;;20.10;17.92;;;;;;;5.68;100.00;96596.56;5053917;28;24430;-77
2022/03/17 08:14:24;;;;;;;18.73;16.85;;;;;;;5.73;100.00;96592.09;5054403;28;24427;-77
2022/03/17 08:16:51;;;;;;;20.23;17.95;;;;;;;5.91;100.00;96595.84;5070886;28;24465;-76
2022/03/17 08:19:17;;;;;;;18.58;16.70;;;;;;;5.98;100.00;96586.25;5074253;28;24455;-77
2022/03/17 08:21:45;;;;;;;19.10;17.02;;;;;;;6.11;100.00;96589.25;5073059;28;24426;-76
2022/03/17 08:24:11;;;;;;;22.58;18.25;;;;;;;6.04;100.00;96593.75;5071896;28;24445;-75
2022/03/17 08:26:38;;;;;;;21.88;17.80;;;;;;;6.13;100.00;96595.19;5080886;28;24434;-75
2022/03/17 08:29:05;;;;;;;22.63;17.80;;;;;;;6.23;100.00;96592.28;5081508;28;24488;-75
2022/03/17 08:31:32;;;;;;;19.08;16.50;;;;;;;6.17;100.00;96594.22;5075208;28;24462;-74
2022/03/17 08:33:59;;;;;;;20.15;18.00;;;;;;;6.14;100.00;96602.03;5074505;28;24776;-75
2022/03/17 08:36:26;;;;;;;21.00;18.10;;;;;;;6.13;100.00;96598.59;5076255;28;24415;-76
2022/03/17 08:38:55;;;;;;;19.65;17.55;;;;;;;6.14;100.00;96602.84;5076178;28;25030;-76
2022/03/17 08:41:22;;;;;;;20.30;18.30;;;;;;;6.13;100.00;96608.06;5077632;28;24418;-76
2022/03/17 08:43:49;;;;;;;22.75;16.70;;;;;;;6.05;100.00;96626.31;5075244;28;24446;-76
2022/03/17 08:51:43;;;;;;;20.05;17.35;;;;;;;5.93;100.00;96622.38;5076961;28;20702;-76
2022/03/17 08:54:11;;;;;;;23.25;18.52;;;;;;;5.91;100.00;96631.84;5079583;28;24422;-74
2022/03/17 08:56:38;;;;;;;19.83;17.92;;;;;;;5.81;100.00;96638.97;5092212;28;24826;-74
2022/03/17 08:59:05;;;;;;;34.17;18.45;;;;;;;5.88;100.00;96638.78;5098972;28;24446;-75
2022/03/17 09:01:31;;;;;;;20.98;17.88;;;;;;;5.91;100.00;96642.13;5092356;28;24422;-76
2022/03/17 09:03:58;;;;;;;20.05;17.98;;;;;;;5.96;100.00;96642.00;5092054;28;24437;-76
2022/03/17 09:06:25;;;;;;;22.67;18.15;;;;;;;6.05;100.00;96639.16;5092077;28;24418;-75
2022/03/17 09:08:52;;;;;;;20.38;18.38;;;;;;;6.06;100.00;96641.69;5092098;28;24421;-76
2022/03/17 09:11:19;;;;;;;27.08;20.95;;;;;;;6.12;100.00;96643.22;5092049;28;24961;-75
2022/03/17 09:13:48;;;;;;;28.58;23.98;;;;;;;6.19;100.00;96649.88;5091862;28;24425;-75
2022/03/17 09:16:14;;;;;;;27.00;22.13;;;;;;;6.18;100.00;96647.31;5092559;28;24530;-75
2022/03/17 09:18:42;;;;;;;23.08;20.70;;;;;;;6.26;100.00;96643.59;5091581;28;24541;-75
2022/03/17 09:21:09;;;;;;;31.70;22.23;;;;;;;6.30;100.00;96647.78;5091745;28;24517;-76
2022/03/17 09:23:35;;;;;;;23.70;20.88;;;;;;;6.37;100.00;96648.41;5091853;28;24434;-76
2022/03/17 09:26:02;;;;;;;25.70;21.77;;;;;;;6.37;100.00;96645.84;5091969;28;24487;-76
2022/03/17 09:28:30;;;;;;;25.50;22.80;;;;;;;6.41;100.00;96654.31;5091187;28;24436;-75
2022/03/17 09:30:57;;;;;;;23.83;21.52;;;;;;;6.45;100.00;96645.59;5073463;22;24467;-74
2022/03/17 09:33:25;;;;;;;24.05;21.52;;;;;;;6.48;100.00;96655.78;5043086;28;24447;-74
2022/03/17 09:35:51;;;;;;;24.05;21.40;;;;;;;6.54;100.00;96656.44;5052187;28;24568;-74
2022/03/17 09:38:18;;;;;;;25.30;21.98;;;;;;;6.66;100.00;96650.03;5053416;28;24493;-74
2022/03/17 09:40:45;;;;;;;27.45;23.02;;;;;;;6.73;100.00;96651.53;5051088;28;24443;-74
2022/03/17 09:43:22;;;;;;;25.70;22.92;;;;;;;6.83;100.00;96649.50;5051226;28;24438;-74
2022/03/17 09:45:53;;;;;;;25.50;22.95;;;;;;;6.96;100.00;96653.31;5050984;28;25009;-74
2022/03/17 09:48:21;;;;;;;25.92;23.33;;;;;;;7.11;100.00;96651.09;5051163;28;24927;-74
2022/03/17 09:50:54;;;;;;;29.63;25.30;;;;;;;7.52;100.00;96652.19;5052272;28;24524;-74
2022/03/17 09:53:20;;;;;;;27.92;25.02;;;;;;;7.57;100.00;96659.78;5032944;28;24440;-74
2022/03/17 09:55:47;;;;;;;28.63;25.52;;;;;;;7.68;100.00;96648.19;5017301;28;24443;-74
2022/03/17 09:58:13;;;;;;;28.33;25.23;;;;;;;7.74;100.00;96655.66;5019609;28;24944;-74
2022/03/17 10:00:52;;;;;;;35.17;26.20;;;;;;;7.94;100.00;96654.94;5019493;28;24443;-74
2022/03/17 10:03:21;;;;;;;30.77;25.87;;;;;;;8.08;100.00;96656.13;5019872;28;24474;-74
2022/03/17 10:05:50;;;;;;;29.95;26.65;;;;;;;7.92;100.00;96664.44;5021173;28;24425;-74
2022/03/17 10:08:17;;;;;;;26.63;23.77;;;;;;;7.98;100.00;96663.38;5019094;28;24439;-75
2022/03/17 10:10:45;;;;;;;30.73;26.33;;;;;;;8.09;100.00;96657.81;5017881;28;24547;-74
2022/03/17 10:13:14;;;;;;;28.92;25.92;;;;;;;8.09;100.00;96662.97;5020615;28;24439;-74
2022/03/17 10:15:41;;;;;;;28.23;24.92;;;;;;;7.97;100.00;96666.84;5020253;28;24431;-74
2022/03/17 10:18:21;;;;;;;28.40;25.37;;;;;;;7.85;100.00;96669.91;5018743;28;24511;-74
2022/03/17 10:20:47;;;;;;;28.73;25.65;;;;;;;8.13;100.00;96662.78;5020833;28;24439;-74
2022/03/17 10:23:23;;;;;;;28.05;25.17;;;;;;;8.27;100.00;96664.84;5019667;28;24429;-74
2022/03/17 10:25:57;;;;;;;28.67;25.58;;;;;;;8.28;100.00;96681.16;5018966;28;24525;-74
2022/03/17 10:28:26;;;;;;;28.75;25.77;;;;;;;8.17;100.00;96679.00;5021850;28;24474;-73
2022/03/17 10:31:03;;;;;;;29.77;26.67;;;;;;;8.44;100.00;96670.19;5043087;28;21330;-74
2022/03/17 10:33:31;;;;;;;30.65;25.90;;;;;;;8.36;100.00;96671.38;5046475;28;24462;-74
2022/03/17 10:36:14;;;;;;;30.20;26.92;;;;;;;8.33;100.00;96676.66;5050109;28;24525;-74
2022/03/17 10:38:43;;;;;;;28.70;25.60;;;;;;;8.47;100.00;96677.81;5049835;28;24546;-74
2022/03/17 10:41:12;;;;;;;32.00;26.70;;;;;;;8.22;100.00;96682.22;5048652;28;21128;-74
2022/03/17 10:43:39;;;;;;;29.33;26.02;;;;;;;8.10;100.00;96686.13;5047834;28;25206;-74
2022/03/17 10:46:07;;;;;;;27.58;24.52;;;;;;;8.06;100.00;96689.72;5046436;28;24812;-74
2022/03/17 10:48:35;;;;;;;28.25;25.00;;;;;;;8.22;100.00;96685.66;5049837;28;24438;-75
2022/03/17 10:51:01;;;;;;;26.55;23.92;;;;;;;8.16;100.00;96690.22;5050109;28;20766;-74
2022/03/17 10:53:29;;;;;;;27.33;24.00;;;;;;;8.13;100.00;96692.91;5050508;28;24447;-75
2022/03/17 10:56:11;;;;;;;27.27;23.17;;;;;;;8.17;100.00;96691.91;5050333;28;20770;-74
2022/03/17 10:58:42;;;;;;;30.58;24.50;;;;;;;8.16;100.00;96696.22;5050358;28;20754;-74
2022/03/17 11:01:08;;;;;;;24.95;22.08;;;;;;;8.17;100.00;96700.47;5050463;28;20747;-74
2022/03/17 11:03:37;;;;;;;26.63;22.85;;;;;;;8.15;100.00;96699.69;5050340;28;24418;-74
2022/03/17 11:06:06;;;;;;;26.75;22.05;;;;;;;8.18;100.00;96701.31;5050421;28;20786;-74
2022/03/17 11:08:33;;;;;;;23.90;20.95;;;;;;;8.23;100.00;96712.28;5049779;28;20827;-74
2022/03/17 11:10:59;;;;;;;24.73;21.63;;;;;;;8.24;100.00;96709.66;5050365;28;20768;-74
2022/03/17 11:13:26;;;;;;;23.83;20.50;;;;;;;8.19;100.00;96721.06;5050245;28;24431;-74
2022/03/17 11:15:59;;;;;;;23.77;21.20;;;;;;;8.06;100.00;96718.09;5050007;28;24948;-73
2022/03/17 11:18:27;;;;;;;23.25;20.38;;;;;;;7.97;100.00;96715.84;5055421;28;24423;-73
2022/03/17 11:21:13;;;;;;;22.80;20.42;;;;;;;8.00;100.00;96720.91;5054937;28;20813;-75
2022/03/17 11:23:55;;;;;;;24.52;20.15;;;;;;;8.03;100.00;96722.53;5054557;28;20774;-74
2022/03/17 11:26:23;;;;;;;22.58;20.00;;;;;;;8.08;100.00;96718.03;5053639;28;24534;-73
2022/03/17 11:28:50;;;;;;;22.33;19.98;;;;;;;8.12;100.00;96719.59;5053864;28;21346;-73
2022/03/17 11:31:20;;;;;;;22.90;20.52;;;;;;;8.20;100.00;96722.75;5053489;28;20866;-74
2022/03/17 11:33:48;;;;;;;23.05;20.13;;;;;;;8.28;100.00;96731.03;5053816;28;20811;-74
2022/03/17 11:36:21;;;;;;;23.17;19.98;;;;;;;8.34;100.00;96727.38;5053488;28;20812;-74